Time;durP1;ratioP1;P1;durP2;ratioP2;P2;SDS_P1;SDS_P2;PMS_P1;PMS_P2;Temp;Humidity;BMP_temperature;BMP_pressure;BME280_temperature;BME280_humidity;BME280_pressure;Samples;Min_cycle;Max_cycle;Signal;HPM_P1;HPM_P2
2023/09/03 00:02:23;;;;;;;2.00;1.40;;;;;;;17.57;100.00;100601.50;108705;1257;66446;-49
2023/09/03 00:04:50;;;;;;;1.90;1.20;;;;;;;17.61;100.00;100599.98;108677;1258;70673;-50
2023/09/03 00:07:18;;;;;;;1.30;1.20;;;;;;;17.64;100.00;100597.23;108768;1257;64049;-50
2023/09/03 00:09:45;;;;;;;1.20;1.00;;;;;;;17.68;100.00;100596.13;108772;1256;58525;-50
2023/09/03 00:12:12;;;;;;;1.60;1.40;;;;;;;17.71;100.00;100592.60;108694;1256;73032;-49
2023/09/03 00:14:40;;;;;;;4.50;1.50;;;;;;;17.75;100.00;100590.90;108782;1256;66332;-49
2023/09/03 00:17:07;;;;;;;1.40;1.30;;;;;;;17.79;100.00;100586.80;108821;1256;72494;-51
2023/09/03 00:19:34;;;;;;;1.70;1.40;;;;;;;17.82;100.00;100584.50;108700;1258;59981;-51
2023/09/03 00:22:02;;;;;;;1.60;1.40;;;;;;;17.82;100.00;100580.30;108790;1256;62567;-50
2023/09/03 00:24:32;;;;;;;2.00;1.50;;;;;;;17.81;100.00;100580.54;104925;1256;72611;-50
2023/09/03 00:27:00;;;;;;;1.80;1.70;;;;;;;17.83;100.00;100579.54;105294;1261;66655;-50
2023/09/03 00:29:27;;;;;;;1.30;1.20;;;;;;;17.83;100.00;100578.61;104626;1256;72926;-48
2023/09/03 00:31:55;;;;;;;1.60;1.30;;;;;;;17.83;100.00;100578.79;104585;1256;60581;-49
2023/09/03 00:34:22;;;;;;;1.60;1.30;;;;;;;17.84;100.00;100575.66;104569;1256;60514;-48
2023/09/03 00:36:50;;;;;;;1.80;1.00;;;;;;;17.84;100.00;100576.52;104666;1256;74312;-48
2023/09/03 00:39:18;;;;;;;3.00;1.20;;;;;;;17.85;100.00;100582.45;104619;1256;67598;-48
2023/09/03 00:41:46;;;;;;;2.30;1.20;;;;;;;17.86;100.00;100574.61;104580;1262;72643;-48
2023/09/03 00:44:14;;;;;;;2.90;1.00;;;;;;;17.86;100.00;100571.30;104624;1257;61742;-48
2023/09/03 00:46:42;;;;;;;1.80;1.10;;;;;;;17.87;100.00;100565.61;104683;1262;60393;-48
2023/09/03 00:49:21;;;;;;;2.10;1.20;;;;;;;17.88;100.00;100561.35;104442;1267;73839;-49
2023/09/03 00:51:49;;;;;;;2.80;1.20;;;;;;;17.90;100.00;100559.27;104956;1262;68059;-49
2023/09/03 00:54:17;;;;;;;2.00;1.60;;;;;;;17.91;100.00;100560.67;104724;1260;71682;-48
2023/09/03 00:56:45;;;;;;;3.20;1.60;;;;;;;17.90;100.00;100560.15;104632;1259;60616;-48
2023/09/03 00:59:12;;;;;;;2.20;1.50;;;;;;;17.90;100.00;100556.70;104507;1264;60510;-48
2023/09/03 01:01:40;;;;;;;1.50;1.30;;;;;;;17.89;100.00;100555.85;104560;1256;74899;-48
2023/09/03 01:04:07;;;;;;;2.30;1.60;;;;;;;17.88;100.00;100557.20;104513;1256;66528;-49
2023/09/03 01:06:35;;;;;;;2.10;1.00;;;;;;;17.87;100.00;100562.74;104640;1256;71422;-47
2023/09/03 01:09:02;;;;;;;1.50;1.40;;;;;;;17.85;100.00;100559.98;104526;1262;61597;-50
2023/09/03 01:11:36;;;;;;;4.20;1.20;;;;;;;17.84;100.00;100556.79;105499;1254;61063;-47
2023/09/03 01:14:11;;;;;;;3.50;1.10;;;;;;;17.83;100.00;100554.66;105323;1256;74292;-47
2023/09/03 01:16:50;;;;;;;4.50;1.30;;;;;;;17.83;100.00;100555.75;105171;1256;67120;-48
2023/09/03 01:19:45;;;;;;;1.50;1.00;;;;;;;17.83;100.00;100552.64;105191;1256;72421;-45
2023/09/03 01:22:17;;;;;;;2.10;1.40;;;;;;;17.85;100.00;100551.45;105015;1256;60545;-48
2023/09/03 01:24:47;;;;;;;2.00;1.30;;;;;;;17.85;100.00;100552.14;105066;1261;60528;-48
2023/09/03 01:27:24;;;;;;;2.20;1.20;;;;;;;17.85;100.00;100546.71;104910;1258;74340;-52
2023/09/03 01:29:52;;;;;;;3.70;1.60;;;;;;;17.85;100.00;100547.63;104973;1257;66782;-47
2023/09/03 01:32:19;;;;;;;3.70;1.50;;;;;;;17.84;100.00;100545.85;105534;1254;73045;-50
2023/09/03 01:34:46;;;;;;;1.80;1.60;;;;;;;17.84;100.00;100543.15;104865;1261;60436;-46
2023/09/03 01:37:14;;;;;;;1.40;1.10;;;;;;;17.82;100.00;100544.00;104745;1254;60726;-49
2023/09/03 01:39:41;;;;;;;3.30;1.10;;;;;;;17.81;100.00;100541.36;104887;1256;73769;-50
2023/09/03 01:42:08;;;;;;;1.80;1.00;;;;;;;17.80;100.00;100539.94;104965;1256;67333;-47
2023/09/03 01:44:36;;;;;;;1.80;1.40;;;;;;;17.79;100.00;100539.42;104972;1256;72660;-47
2023/09/03 01:47:10;;;;;;;1.40;1.10;;;;;;;17.81;100.00;100536.45;104759;1258;60562;-47
2023/09/03 01:49:48;;;;;;;1.30;0.90;;;;;;;17.82;100.00;100537.44;105044;1260;60527;-48
2023/09/03 01:52:35;;;;;;;1.90;1.30;;;;;;;17.83;100.00;100539.21;104942;1256;73829;-47
2023/09/03 01:55:05;;;;;;;1.60;1.30;;;;;;;17.84;100.00;100535.15;104835;1258;66765;-46
2023/09/03 01:57:39;;;;;;;1.70;1.30;;;;;;;17.86;100.00;100535.95;104730;1256;73630;-50
2023/09/03 02:00:08;;;;;;;3.80;1.20;;;;;;;17.88;100.00;100535.08;104920;1256;60546;-47
2023/09/03 02:02:42;;;;;;;2.80;1.20;;;;;;;17.85;100.00;100533.80;104869;1261;60393;-47
2023/09/03 02:05:13;;;;;;;2.00;1.40;;;;;;;17.83;100.00;100531.18;104904;1256;72608;-47
2023/09/03 02:07:41;;;;;;;1.40;1.10;;;;;;;17.82;100.00;100529.48;105049;1256;68294;-48
2023/09/03 02:10:09;;;;;;;2.10;1.00;;;;;;;17.80;100.00;100529.23;105243;1259;72463;-48
2023/09/03 02:12:37;;;;;;;1.30;1.10;;;;;;;17.78;100.00;100531.19;104580;1261;60468;-48
2023/09/03 02:15:05;;;;;;;1.30;1.10;;;;;;;17.76;100.00;100530.55;104668;1256;60462;-48
2023/09/03 02:17:32;;;;;;;1.00;0.90;;;;;;;17.76;100.00;100533.31;105150;1256;72561;-47
2023/09/03 02:20:00;;;;;;;1.30;1.00;;;;;;;17.76;100.00;100539.28;105206;1258;66784;-48
2023/09/03 02:22:27;;;;;;;1.40;1.00;;;;;;;17.77;100.00;100537.96;104995;1258;73209;-47
2023/09/03 02:24:55;;;;;;;3.80;1.10;;;;;;;17.77;100.00;100539.78;104805;1261;60563;-48
2023/09/03 02:27:22;;;;;;;1.80;1.10;;;;;;;17.78;100.00;100539.02;104870;1256;60658;-50
2023/09/03 02:29:50;;;;;;;1.70;1.00;;;;;;;17.77;100.00;100538.34;104916;1258;74016;-47
2023/09/03 02:32:17;;;;;;;3.90;1.10;;;;;;;17.76;100.00;100532.20;104840;1261;67526;-48
2023/09/03 02:34:44;;;;;;;1.20;1.00;;;;;;;17.75;100.00;100528.11;104868;1261;72640;-47
2023/09/03 02:37:12;;;;;;;1.50;1.20;;;;;;;17.73;100.00;100523.30;105168;1255;61648;-47
2023/09/03 02:39:41;;;;;;;1.80;1.00;;;;;;;17.72;100.00;100521.96;105222;1257;60527;-47
2023/09/03 02:42:08;;;;;;;2.00;1.10;;;;;;;17.69;100.00;100515.92;105486;1259;72583;-48
2023/09/03 02:44:36;;;;;;;1.60;1.20;;;;;;;17.69;100.00;100518.73;104690;1255;65478;-47
2023/09/03 02:47:03;;;;;;;2.00;1.30;;;;;;;17.67;100.00;100521.19;104661;1256;72687;-46
2023/09/03 02:49:31;;;;;;;1.90;1.20;;;;;;;17.67;100.00;100524.26;108925;1256;60711;-47
2023/09/03 02:51:58;;;;;;;3.30;1.60;;;;;;;17.68;100.00;100524.59;108792;1261;58938;-48
2023/09/03 02:54:25;;;;;;;3.20;1.60;;;;;;;17.68;100.00;100521.67;108912;1256;74329;-49
2023/09/03 02:56:52;;;;;;;1.90;1.50;;;;;;;17.69;100.00;100521.98;109055;1255;65559;-48
2023/09/03 02:59:20;;;;;;;2.30;1.90;;;;;;;17.68;100.00;100519.11;109000;1255;73382;-48
2023/09/03 03:01:47;;;;;;;1.70;1.20;;;;;;;17.68;100.00;100521.45;108861;1256;58793;-49
2023/09/03 03:04:15;;;;;;;1.60;1.30;;;;;;;17.68;100.00;100522.22;108933;1260;58883;-46
2023/09/03 03:06:42;;;;;;;3.70;1.30;;;;;;;17.67;100.00;100525.03;108958;1254;73940;-47
2023/09/03 03:09:09;;;;;;;1.60;1.50;;;;;;;17.65;100.00;100526.91;108912;1256;68262;-46
2023/09/03 03:11:36;;;;;;;1.20;1.00;;;;;;;17.64;100.00;100530.13;108812;1256;71401;-46
2023/09/03 03:14:04;;;;;;;1.80;1.20;;;;;;;17.62;100.00;100526.95;108772;1256;61867;-48
2023/09/03 03:16:33;;;;;;;2.90;1.10;;;;;;;17.63;100.00;100525.08;108833;1255;58771;-47
2023/09/03 03:19:05;;;;;;;1.10;0.90;;;;;;;17.63;100.00;100524.36;108882;1256;72576;-46
2023/09/03 03:21:33;;;;;;;1.60;1.00;;;;;;;17.62;100.00;100521.30;108760;1255;67658;-46
2023/09/03 03:24:04;;;;;;;2.20;1.00;;;;;;;17.62;100.00;100524.39;105076;1259;71452;-49
2023/09/03 03:26:37;;;;;;;1.30;1.20;;;;;;;17.63;100.00;100520.20;104869;1261;60391;-49
2023/09/03 03:29:07;;;;;;;2.60;1.30;;;;;;;17.61;100.00;100517.38;104539;1256;60559;-47
2023/09/03 03:31:41;;;;;;;1.50;1.20;;;;;;;17.59;100.00;100517.69;107245;1258;72115;-47
2023/09/03 03:34:10;;;;;;;1.90;1.20;;;;;;;17.57;100.00;100517.64;105143;1256;67998;-46
2023/09/03 03:36:38;;;;;;;1.80;1.40;;;;;;;17.55;100.00;100517.39;104989;1256;72704;-47
2023/09/03 03:39:06;;;;;;;5.40;1.40;;;;;;;17.54;100.00;100520.02;104757;1256;60531;-47
2023/09/03 03:41:33;;;;;;;2.10;1.10;;;;;;;17.53;100.00;100518.27;104660;1260;60086;-47
2023/09/03 03:44:01;;;;;;;1.50;1.00;;;;;;;17.52;100.00;100514.52;104647;1261;74314;-47
2023/09/03 03:46:28;;;;;;;2.30;1.20;;;;;;;17.51;100.00;100516.05;104623;1261;69834;-47
2023/09/03 03:48:57;;;;;;;1.30;0.90;;;;;;;17.51;100.00;100520.21;104383;1256;72976;-48
2023/09/03 03:51:25;;;;;;;3.20;0.90;;;;;;;17.52;100.00;100520.33;106830;1256;62231;-48
2023/09/03 03:53:52;;;;;;;1.40;0.90;;;;;;;17.54;100.00;100523.27;104558;1256;60348;-51
2023/09/03 03:56:20;;;;;;;2.50;1.30;;;;;;;17.55;100.00;100521.57;104516;1256;72608;-51
2023/09/03 03:58:48;;;;;;;1.90;1.40;;;;;;;17.57;100.00;100524.16;104850;1259;68342;-47
2023/09/03 04:01:19;;;;;;;1.30;1.00;;;;;;;17.60;100.00;100525.60;104672;1259;71596;-49
2023/09/03 04:03:49;;;;;;;2.00;1.20;;;;;;;17.63;100.00;100524.20;105007;1260;60529;-47
2023/09/03 04:06:17;;;;;;;1.10;1.00;;;;;;;17.63;100.00;100523.41;105253;1256;60562;-47
2023/09/03 04:08:44;;;;;;;2.10;1.60;;;;;;;17.64;100.00;100522.84;104700;1256;73804;-48
2023/09/03 04:11:13;;;;;;;1.90;1.70;;;;;;;17.64;100.00;100517.23;104939;1256;68397;-50
2023/09/03 04:13:40;;;;;;;1.80;1.60;;;;;;;17.63;100.00;100516.38;108765;1256;72417;-49
2023/09/03 04:16:09;;;;;;;2.70;1.50;;;;;;;17.62;100.00;100515.33;108744;1256;60399;-48
2023/09/03 04:18:37;;;;;;;2.00;1.30;;;;;;;17.62;100.00;100511.69;104817;1256;60333;-47
2023/09/03 04:21:04;;;;;;;1.60;1.10;;;;;;;17.64;100.00;100514.67;104810;1255;73883;-47
2023/09/03 04:23:32;;;;;;;1.30;1.10;;;;;;;17.65;100.00;100513.70;105200;1255;67534;-47
2023/09/03 04:26:02;;;;;;;1.90;1.10;;;;;;;17.67;100.00;100514.46;104896;1261;72449;-49
2023/09/03 04:28:31;;;;;;;3.10;1.20;;;;;;;17.70;100.00;100511.52;104326;1256;60557;-48
2023/09/03 04:31:00;;;;;;;1.70;1.20;;;;;;;17.73;100.00;100508.64;107127;1256;60557;-47
2023/09/03 04:33:31;;;;;;;3.20;1.50;;;;;;;17.75;100.00;100513.59;105113;1261;72656;-47
2023/09/03 04:35:59;;;;;;;2.50;1.10;;;;;;;17.76;100.00;100501.16;104557;1261;65344;-47
2023/09/03 04:38:29;;;;;;;3.00;1.40;;;;;;;17.78;100.00;100504.54;104660;1256;72332;-49
2023/09/03 04:40:56;;;;;;;1.40;1.20;;;;;;;17.78;100.00;100505.58;104812;1260;60614;-47
2023/09/03 04:43:25;;;;;;;2.80;1.40;;;;;;;17.78;100.00;100507.95;104769;1257;60561;-46
2023/09/03 04:45:53;;;;;;;3.60;1.50;;;;;;;17.79;100.00;100505.51;104607;1256;73772;-51
2023/09/03 04:48:22;;;;;;;1.60;1.10;;;;;;;17.79;100.00;100507.12;107992;1258;68263;-47
2023/09/03 04:50:50;;;;;;;1.20;1.10;;;;;;;17.81;100.00;100506.50;104442;1260;72703;-51
2023/09/03 04:53:18;;;;;;;3.10;1.30;;;;;;;17.83;100.00;100511.98;104659;1261;60562;-49
2023/09/03 04:55:46;;;;;;;1.30;1.00;;;;;;;17.85;100.00;100511.85;104989;1258;59316;-47
2023/09/03 04:58:14;;;;;;;1.50;1.40;;;;;;;17.87;100.00;100509.33;104703;1257;73814;-52
2023/09/03 05:00:41;;;;;;;1.60;1.50;;;;;;;17.90;100.00;100509.33;104813;1255;67765;-48
2023/09/03 05:03:10;;;;;;;1.10;1.00;;;;;;;17.93;100.00;100509.10;104895;1259;74933;-48
2023/09/03 05:05:40;;;;;;;1.20;1.10;;;;;;;17.97;100.00;100510.84;104809;1259;60616;-48
2023/09/03 05:08:08;;;;;;;1.60;1.50;;;;;;;17.99;100.00;100503.23;104757;1257;60589;-47
2023/09/03 05:10:38;;;;;;;1.20;1.00;;;;;;;18.01;100.00;100502.77;105113;1256;73767;-47
2023/09/03 05:13:06;;;;;;;2.40;1.60;;;;;;;18.03;100.00;100502.59;105113;1256;66625;-46
2023/09/03 05:15:36;;;;;;;1.50;1.20;;;;;;;18.04;100.00;100500.89;104846;1262;71343;-47
2023/09/03 05:18:04;;;;;;;1.60;1.10;;;;;;;18.06;100.00;100501.33;105871;1260;61767;-48
2023/09/03 05:20:37;;;;;;;1.40;1.10;;;;;;;18.08;100.00;100501.20;104916;1260;60454;-49
2023/09/03 05:23:05;;;;;;;1.60;1.40;;;;;;;18.10;100.00;100500.54;104911;1256;72673;-47
2023/09/03 05:25:32;;;;;;;1.30;0.90;;;;;;;18.12;100.00;100506.00;105315;1261;68075;-48
2023/09/03 05:28:01;;;;;;;1.50;0.80;;;;;;;18.15;100.00;100504.33;104752;1259;71418;-47
2023/09/03 05:30:30;;;;;;;1.80;1.10;;;;;;;18.20;100.00;100505.16;105251;1261;60538;-46
2023/09/03 05:32:58;;;;;;;1.70;1.10;;;;;;;18.23;100.00;100504.70;104877;1259;60546;-47
2023/09/03 05:35:27;;;;;;;1.90;1.10;;;;;;;18.27;100.00;100500.27;105072;1256;72743;-47
2023/09/03 05:37:54;;;;;;;2.10;1.80;;;;;;;18.31;100.00;100498.36;104596;1256;68144;-48
2023/09/03 05:40:22;;;;;;;1.80;1.10;;;;;;;18.34;100.00;100497.60;106028;1260;72805;-51
2023/09/03 05:42:49;;;;;;;1.60;1.30;;;;;;;18.36;100.00;100495.85;104766;1260;60520;-48
2023/09/03 05:45:18;;;;;;;2.10;1.20;;;;;;;18.38;100.00;100494.61;108800;1256;60141;-50
2023/09/03 05:47:45;;;;;;;1.70;1.10;;;;;;;18.38;100.00;100499.30;108931;1256;72638;-49
2023/09/03 05:50:13;;;;;;;1.50;1.40;;;;;;;18.39;100.00;100497.26;108864;1261;66360;-48
2023/09/03 05:52:42;;;;;;;1.60;1.00;;;;;;;18.40;100.00;100496.10;108908;1256;72666;-50
2023/09/03 05:55:10;;;;;;;1.80;1.00;;;;;;;18.42;100.00;100491.95;108780;1256;60530;-48
2023/09/03 05:57:37;;;;;;;1.90;1.10;;;;;;;18.45;100.00;100491.00;108880;1258;60014;-47
2023/09/03 06:00:05;;;;;;;1.00;0.90;;;;;;;18.50;100.00;100495.61;108897;1256;73818;-47
2023/09/03 06:02:33;;;;;;;2.90;0.90;;;;;;;18.55;100.00;100489.40;108861;1258;66789;-48
2023/09/03 06:05:02;;;;;;;2.30;0.90;;;;;;;18.62;100.00;100491.71;108783;1256;72449;-48
2023/09/03 06:07:29;;;;;;;3.20;0.90;;;;;;;18.67;100.00;100487.30;108794;1254;61085;-48
2023/09/03 06:09:56;;;;;;;1.80;1.00;;;;;;;18.72;100.00;100484.39;105710;1256;60454;-46
2023/09/03 06:12:24;;;;;;;1.60;0.90;;;;;;;18.76;100.00;100485.79;104758;1262;72553;-47
2023/09/03 06:14:51;;;;;;;1.80;1.20;;;;;;;18.78;100.00;100488.34;104885;1260;66809;-49
2023/09/03 06:17:18;;;;;;;2.30;1.20;;;;;;;18.80;100.00;100488.73;104785;1260;73093;-47
2023/09/03 06:19:48;;;;;;;2.00;1.40;;;;;;;18.83;100.00;100489.13;104973;1258;60533;-47
2023/09/03 06:22:16;;;;;;;2.50;1.30;;;;;;;18.86;100.00;100489.27;104687;1259;60521;-47
2023/09/03 06:24:43;;;;;;;3.50;1.20;;;;;;;18.87;100.00;100486.83;104685;1260;74249;-47
2023/09/03 06:27:10;;;;;;;1.40;1.30;;;;;;;18.89;100.00;100493.17;104508;1257;67513;-49
2023/09/03 06:29:38;;;;;;;2.60;1.00;;;;;;;18.93;100.00;100494.96;104524;1257;71281;-49
2023/09/03 06:32:05;;;;;;;2.00;1.00;;;;;;;18.96;100.00;100499.31;104609;1260;61697;-52
2023/09/03 06:34:32;;;;;;;1.10;1.00;;;;;;;19.00;100.00;100500.48;104758;1259;60479;-51
2023/09/03 06:37:00;;;;;;;2.50;1.00;;;;;;;19.04;100.00;100496.72;104635;1260;72702;-47
2023/09/03 06:39:28;;;;;;;1.40;1.00;;;;;;;19.08;100.00;100498.19;104520;1260;68290;-51
2023/09/03 06:41:56;;;;;;;1.10;0.90;;;;;;;19.13;100.00;100497.52;104582;1263;72648;-51
2023/09/03 06:44:24;;;;;;;1.40;0.90;;;;;;;19.17;100.00;100493.03;104941;1260;62048;-49
2023/09/03 06:46:52;;;;;;;1.10;0.90;;;;;;;19.21;100.00;100488.02;104588;1260;60509;-53
2023/09/03 06:49:20;;;;;;;1.00;0.90;;;;;;;19.25;100.00;100483.70;105405;1259;72592;-49
2023/09/03 06:51:47;;;;;;;1.50;0.90;;;;;;;19.29;100.00;100483.77;104703;1254;65686;-53
2023/09/03 06:54:15;;;;;;;2.40;0.80;;;;;;;19.32;100.00;100482.64;104905;1256;71650;-49
2023/09/03 06:56:42;;;;;;;1.40;0.90;;;;;;;19.36;100.00;100483.08;104634;1257;61961;-49
2023/09/03 06:59:09;;;;;;;1.20;0.90;;;;;;;19.40;100.00;100480.79;104594;1254;60466;-48
2023/09/03 07:01:43;;;;;;;2.40;1.20;;;;;;;19.43;100.00;100481.27;104734;1260;74411;-48
2023/09/03 07:04:10;;;;;;;1.10;1.00;;;;;;;19.47;100.00;100479.18;104580;1262;65577;-47
2023/09/03 07:06:38;;;;;;;1.30;0.70;;;;;;;19.52;100.00;100477.59;104716;1260;72643;-46
2023/09/03 07:09:05;;;;;;;1.00;0.80;;;;;;;19.56;100.00;100476.67;104782;1260;60654;-47
2023/09/03 07:11:32;;;;;;;1.80;0.80;;;;;;;19.61;100.00;100475.97;104960;1260;60657;-49
2023/09/03 07:14:00;;;;;;;2.80;1.00;;;;;;;19.67;100.00;100474.46;104666;1260;72207;-49
2023/09/03 07:16:27;;;;;;;1.90;1.00;;;;;;;19.73;100.00;100478.21;104664;1262;66755;-46
2023/09/03 07:18:54;;;;;;;2.20;1.10;;;;;;;19.78;100.00;100475.27;104792;1260;72668;-47
2023/09/03 07:21:22;;;;;;;1.50;1.00;;;;;;;19.82;100.00;100476.80;104816;1254;61908;-50
2023/09/03 07:23:50;;;;;;;1.10;1.00;;;;;;;19.86;100.00;100477.57;104677;1257;63247;-47
2023/09/03 07:26:17;;;;;;;2.20;0.80;;;;;;;19.88;100.00;100475.00;104827;1260;72613;-50
2023/09/03 07:28:45;;;;;;;2.70;0.80;;;;;;;19.91;100.00;100476.25;104572;1260;68408;-49
2023/09/03 07:31:12;;;;;;;2.20;1.00;;;;;;;19.92;100.00;100477.64;104475;1254;74969;-49
2023/09/03 07:33:39;;;;;;;3.20;0.90;;;;;;;19.93;100.00;100485.20;104711;1256;60476;-48
2023/09/03 07:36:10;;;;;;;1.10;1.00;;;;;;;19.94;100.00;100485.70;104527;1258;60467;-51
2023/09/03 07:38:38;;;;;;;1.30;1.00;;;;;;;19.94;100.00;100487.13;104460;1255;73875;-53
2023/09/03 07:41:05;;;;;;;1.10;0.70;;;;;;;19.94;100.00;100486.56;104459;1260;67250;-52
2023/09/03 07:43:34;;;;;;;1.70;0.70;;;;;;;19.96;100.00;100485.74;104366;1254;74204;-50
2023/09/03 07:46:02;;;;;;;3.20;0.80;;;;;;;19.99;100.00;100483.33;104380;1259;61656;-50
2023/09/03 07:48:29;;;;;;;1.20;0.70;;;;;;;20.02;100.00;100483.02;106170;1259;60563;-48
2023/09/03 07:50:57;;;;;;;0.80;0.70;;;;;;;20.08;100.00;100477.16;105517;1258;74251;-51
2023/09/03 07:53:24;;;;;;;0.60;0.60;;;;;;;20.13;100.00;100480.79;104572;1260;65667;-49
2023/09/03 07:55:51;;;;;;;1.00;0.80;;;;;;;20.17;100.00;100477.02;104754;1261;71387;-46
2023/09/03 07:58:19;;;;;;;0.90;0.80;;;;;;;20.20;100.00;100480.42;104681;1258;60610;-48
2023/09/03 08:00:46;;;;;;;4.50;1.10;;;;;;;20.23;100.00;100476.92;104680;1257;60463;-47
2023/09/03 08:03:13;;;;;;;1.30;0.70;;;;;;;20.26;100.00;100473.21;104620;1256;71663;-50
2023/09/03 08:05:41;;;;;;;0.90;0.70;;;;;;;20.28;100.00;100469.77;104482;1262;65908;-49
2023/09/03 08:08:08;;;;;;;0.90;0.70;;;;;;;20.29;100.00;100475.20;104397;1257;71453;-51
2023/09/03 08:10:36;;;;;;;0.90;0.80;;;;;;;20.29;100.00;100474.21;104435;1256;60566;-49
2023/09/03 08:13:04;;;;;;;0.70;0.70;;;;;;;20.31;100.00;100477.36;104600;1259;60432;-48
2023/09/03 08:15:31;;;;;;;2.30;0.70;;;;;;;20.33;100.00;100479.95;104735;1254;72677;-50
2023/09/03 08:18:10;;;;;;;1.60;0.80;;;;;;;20.34;100.00;100477.33;104465;1254;66820;-48
2023/09/03 08:20:38;;;;;;;1.30;0.60;;;;;;;20.36;100.00;100472.10;108760;1257;73279;-50
2023/09/03 08:23:05;;;;;;;1.40;0.70;;;;;;;20.37;100.00;100473.25;106958;1260;200682;-50
2023/09/03 08:26:19;;;;;;;0.60;0.60;;;;;;;20.43;100.00;100523.52;101791;1291;600296;-48
2023/09/03 08:28:46;;;;;;;1.50;0.80;;;;;;;20.44;100.00;100512.17;108149;1267;59022;-50
2023/09/03 08:31:13;;;;;;;1.40;0.80;;;;;;;20.46;100.00;100507.81;108245;1267;59976;-51
2023/09/03 08:33:41;;;;;;;0.70;0.70;;;;;;;20.49;100.00;100505.23;108042;1273;70433;-48
2023/09/03 08:36:08;;;;;;;2.30;0.70;;;;;;;20.52;100.00;100504.59;108347;1263;67318;-50
2023/09/03 08:38:36;;;;;;;1.60;0.70;;;;;;;20.55;100.00;100496.51;108268;1266;72691;-52
2023/09/03 08:41:04;;;;;;;1.00;0.70;;;;;;;20.59;100.00;100495.27;108124;1263;202262;-48
2023/09/03 08:43:31;;;;;;;2.80;0.70;;;;;;;20.62;100.00;100487.90;108439;1263;60473;-52
2023/09/03 08:46:07;;;;;;;0.70;0.50;;;;;;;20.67;100.00;100493.59;108377;1263;71722;-49
2023/09/03 08:48:34;;;;;;;0.80;0.70;;;;;;;20.73;100.00;100497.78;108479;1257;67997;-50
2023/09/03 08:51:02;;;;;;;0.90;0.60;;;;;;;20.79;100.00;100494.58;108604;1257;72658;-48
2023/09/03 08:53:29;;;;;;;2.10;0.60;;;;;;;20.87;100.00;100492.91;108641;1258;59387;-50
2023/09/03 08:55:57;;;;;;;1.30;0.60;;;;;;;20.94;100.00;100492.52;108737;1257;58071;-52
2023/09/03 08:58:24;;;;;;;3.00;0.60;;;;;;;20.99;100.00;100494.42;108618;1257;73063;-48
2023/09/03 09:00:54;;;;;;;1.60;0.60;;;;;;;21.03;100.00;100497.23;108635;1257;65866;-49
2023/09/03 09:03:24;;;;;;;1.60;0.60;;;;;;;21.05;100.00;100494.92;108651;1257;71438;-48
2023/09/03 09:05:52;;;;;;;4.10;0.60;;;;;;;21.06;100.00;100498.79;108618;1256;58825;-48
2023/09/03 09:08:21;;;;;;;1.50;0.60;;;;;;;21.07;100.00;100500.16;108689;1260;58765;-51
2023/09/03 09:10:50;;;;;;;0.60;0.60;;;;;;;21.08;100.00;100499.00;108272;1257;75385;-49
2023/09/03 09:13:21;;;;;;;1.20;0.60;;;;;;;21.08;100.00;100498.28;105033;1258;67337;-48
2023/09/03 09:15:49;;;;;;;0.90;0.60;;;;;;;21.08;100.00;100499.55;104350;1266;72456;-47
2023/09/03 09:18:16;;;;;;;1.30;0.60;;;;;;;21.09;100.00;100496.05;104557;1261;60161;-47
2023/09/03 09:20:44;;;;;;;2.40;0.60;;;;;;;21.08;100.00;100496.13;104518;1262;60081;-47
2023/09/03 09:23:11;;;;;;;1.70;0.60;;;;;;;21.08;100.00;100493.34;104471;1263;73621;-48
2023/09/03 09:25:39;;;;;;;0.60;0.50;;;;;;;21.12;100.00;100491.18;104449;1265;65736;-51
2023/09/03 09:28:13;;;;;;;0.50;0.50;;;;;;;21.18;100.00;100497.34;104376;1266;71331;-49
2023/09/03 09:30:54;;;;;;;1.10;0.50;;;;;;;21.26;100.00;100500.90;108771;1262;59043;-52
2023/09/03 09:33:21;;;;;;;0.70;0.40;;;;;;;21.35;100.00;100499.77;105225;1257;60531;-47
2023/09/03 09:35:50;;;;;;;2.30;0.50;;;;;;;21.45;100.00;100497.66;104965;1262;73028;-48
2023/09/03 09:38:17;;;;;;;0.60;0.40;;;;;;;21.56;100.00;100492.20;104494;1263;67600;-52
2023/09/03 09:40:45;;;;;;;0.40;0.40;;;;;;;21.68;100.00;100493.20;104255;1257;71392;-47
2023/09/03 09:43:12;;;;;;;0.70;0.50;;;;;;;21.81;100.00;100494.67;104394;1272;60486;-50
2023/09/03 09:45:50;;;;;;;1.60;0.40;;;;;;;21.97;100.00;100491.02;104412;1263;59692;-52
2023/09/03 09:48:18;;;;;;;0.80;0.40;;;;;;;22.14;100.00;100487.02;104306;1263;73061;-50
2023/09/03 09:50:47;;;;;;;0.90;0.50;;;;;;;22.30;100.00;100484.92;104528;1267;65672;-51
2023/09/03 09:53:27;;;;;;;0.90;0.40;;;;;;;22.42;100.00;100487.57;104443;1266;73215;-48
2023/09/03 09:56:02;;;;;;;0.70;0.40;;;;;;;22.51;100.00;100489.35;104993;1263;60183;-48
2023/09/03 09:58:37;;;;;;;0.50;0.40;;;;;;;22.57;100.00;100483.81;104663;1263;60431;-50
2023/09/03 10:01:05;;;;;;;0.80;0.40;;;;;;;22.62;100.00;100486.52;104683;1258;71702;-50
2023/09/03 10:03:42;;;;;;;0.40;0.40;;;;;;;22.66;100.00;100486.56;104751;1263;66778;-48
2023/09/03 10:06:09;;;;;;;1.30;0.50;;;;;;;22.70;100.00;100490.02;104497;1262;73098;-49
2023/09/03 10:08:37;;;;;;;0.50;0.40;;;;;;;22.74;100.00;100488.25;104381;1260;59701;-49
2023/09/03 10:11:04;;;;;;;0.60;0.40;;;;;;;22.81;100.00;100490.35;104375;1264;59643;-51
2023/09/03 10:13:32;;;;;;;0.60;0.50;;;;;;;22.89;100.00;100486.05;104453;1263;73101;-50
2023/09/03 10:16:02;;;;;;;0.50;0.40;;;;;;;22.98;100.00;100488.49;104535;1266;66109;-52
2023/09/03 10:18:31;;;;;;;0.50;0.40;;;;;;;23.09;100.00;100489.20;104928;1266;71390;-50
2023/09/03 10:21:00;;;;;;;1.00;0.50;;;;;;;23.19;100.00;100484.97;106243;1258;59678;-51
2023/09/03 10:23:28;;;;;;;0.50;0.40;;;;;;;23.28;100.00;100488.35;105077;1258;60581;-48
2023/09/03 10:25:56;;;;;;;0.70;0.50;;;;;;;23.34;100.00;100486.20;104585;1263;74063;-49
2023/09/03 10:28:34;;;;;;;0.60;0.40;;;;;;;23.38;100.00;100490.02;105482;1263;67121;-49
2023/09/03 10:31:01;;;;;;;0.70;0.50;;;;;;;23.39;100.00;100486.67;104472;1257;72974;-52
2023/09/03 10:33:29;;;;;;;0.60;0.50;;;;;;;23.36;100.00;100479.89;104477;1257;59991;-52
2023/09/03 10:36:13;;;;;;;2.00;0.40;;;;;;;23.33;100.00;100481.63;104580;1258;59562;-50
2023/09/03 10:38:41;;;;;;;1.20;0.30;;;;;;;23.31;100.00;100480.02;104903;1257;73030;-49
2023/09/03 10:41:22;;;;;;;0.50;0.40;;;;;;;23.29;100.00;100481.70;104908;1257;66935;-47
2023/09/03 10:43:54;;;;;;;0.50;0.40;;;;;;;23.28;100.00;100479.73;104640;1262;72718;-48
2023/09/03 10:46:22;;;;;;;0.40;0.40;;;;;;;23.27;100.00;100476.95;104509;1263;60116;-50
2023/09/03 10:48:53;;;;;;;0.60;0.50;;;;;;;23.25;100.00;100478.26;104251;1261;60003;-50
2023/09/03 10:51:43;;;;;;;0.40;0.40;;;;;;;23.25;100.00;100478.52;108544;1259;73074;-50
2023/09/03 10:54:15;;;;;;;2.10;0.70;;;;;;;23.27;100.00;100482.02;104611;1260;66473;-52
2023/09/03 10:57:05;;;;;;;0.50;0.50;;;;;;;23.28;100.00;100477.54;104767;1261;72704;-48
2023/09/03 10:59:57;;;;;;;1.70;0.60;;;;;;;23.31;100.00;100475.86;105035;1261;60293;-49
2023/09/03 11:02:26;;;;;;;0.40;0.40;;;;;;;23.32;100.00;100471.50;105286;1257;59976;-48
2023/09/03 11:05:12;;;;;;;0.70;0.50;;;;;;;23.34;100.00;100473.56;105421;1261;73059;-50
2023/09/03 11:07:41;;;;;;;1.10;0.40;;;;;;;23.35;100.00;100471.27;104714;1261;66937;-50
2023/09/03 11:10:25;;;;;;;0.40;0.40;;;;;;;23.36;100.00;100470.02;107563;1257;73292;-52
2023/09/03 11:12:53;;;;;;;1.50;0.50;;;;;;;23.37;100.00;100471.42;106307;1257;60557;-51
2023/09/03 11:15:20;;;;;;;0.50;0.50;;;;;;;23.41;100.00;100473.67;104770;1260;61618;-48
2023/09/03 11:17:54;;;;;;;0.60;0.50;;;;;;;23.47;100.00;100468.59;108652;1257;71777;-48
2023/09/03 11:20:31;;;;;;;0.80;0.50;;;;;;;23.53;100.00;100469.69;108667;1260;66929;-51